createdAt,value
2023-01-21T00:00:53.304Z,14.80
2023-01-21T00:01:53.306Z,15.20
2023-01-21T00:02:53.278Z,16.10
2023-01-21T00:03:53.274Z,12.80
2023-01-21T00:04:53.262Z,15.20
2023-01-21T00:05:53.246Z,16.40
2023-01-21T00:06:53.251Z,17.20
2023-01-21T00:07:53.226Z,16.80
2023-01-21T00:08:53.227Z,15.10
2023-01-21T00:09:53.220Z,16.10
2023-01-21T00:10:53.200Z,15.40
2023-01-21T00:11:53.206Z,15.20
2023-01-21T00:12:53.189Z,16.30
2023-01-21T00:13:53.172Z,14.20
2023-01-21T00:14:53.166Z,14.50
2023-01-21T00:15:53.202Z,16.10
2023-01-21T00:16:53.169Z,12.70
2023-01-21T00:17:53.131Z,17.90
2023-01-21T00:18:53.132Z,16.80
2023-01-21T00:19:53.112Z,17.60
2023-01-21T00:20:53.110Z,21.00
2023-01-21T00:21:53.125Z,17.90
2023-01-21T00:22:53.097Z,15.90
2023-01-21T00:23:53.073Z,15.90
2023-01-21T00:24:53.074Z,14.90
2023-01-21T00:25:53.064Z,12.50
2023-01-21T00:26:53.079Z,17.40
2023-01-21T00:27:53.035Z,16.10
2023-01-21T00:28:53.034Z,16.30
2023-01-21T00:29:53.035Z,17.30
2023-01-21T00:30:53.103Z,17.00
2023-01-21T00:31:53.083Z,15.90
2023-01-21T00:32:52.997Z,17.10
2023-01-21T00:33:52.987Z,16.20
2023-01-21T00:34:52.984Z,13.50
2023-01-21T00:35:52.959Z,14.80
2023-01-21T00:36:54.504Z,17.80
2023-01-21T00:37:52.941Z,14.90
2023-01-21T00:38:52.935Z,13.00
2023-01-21T00:39:52.923Z,15.30
2023-01-21T00:40:52.916Z,14.10
2023-01-21T00:41:52.908Z,16.70
2023-01-21T00:42:52.903Z,18.30
2023-01-21T00:43:52.897Z,14.30
2023-01-21T00:44:52.879Z,18.70
2023-01-21T00:45:52.923Z,11.30
2023-01-21T00:46:52.875Z,13.20
2023-01-21T00:47:52.845Z,14.80
2023-01-21T00:48:52.841Z,15.30
2023-01-21T00:49:52.827Z,14.90
2023-01-21T00:50:52.861Z,15.10
2023-01-21T00:51:52.815Z,18.10
2023-01-21T00:52:52.806Z,17.30
2023-01-21T00:53:52.785Z,15.50
2023-01-21T00:54:52.782Z,16.30
2023-01-21T00:55:52.768Z,20.20
2023-01-21T00:56:52.812Z,19.10
2023-01-21T00:57:52.750Z,18.60
2023-01-21T00:58:52.745Z,20.10
2023-01-21T00:59:52.734Z,19.80
2023-01-21T01:00:52.733Z,20.40
2023-01-21T01:01:52.775Z,19.90
2023-01-21T01:02:52.772Z,20.00
2023-01-21T01:03:52.692Z,18.50
2023-01-21T01:04:52.693Z,20.80
2023-01-21T01:05:52.675Z,21.80
2023-01-21T01:06:52.711Z,18.30
2023-01-21T01:07:52.657Z,18.30
2023-01-21T01:08:52.670Z,21.30
2023-01-21T01:09:52.636Z,21.40
2023-01-21T01:10:52.632Z,21.60
2023-01-21T01:11:52.628Z,15.50
2023-01-21T01:12:52.611Z,18.60
2023-01-21T01:13:52.599Z,16.30
2023-01-21T01:14:52.590Z,18.50
2023-01-21T01:15:52.608Z,17.60
2023-01-21T01:16:52.622Z,20.20
2023-01-21T01:17:52.557Z,16.30
2023-01-21T01:18:52.555Z,18.80
2023-01-21T01:19:52.538Z,16.40
2023-01-21T01:20:52.539Z,14.80
2023-01-21T01:21:52.614Z,15.90
2023-01-21T01:22:52.522Z,15.40
2023-01-21T01:23:52.501Z,16.40
2023-01-21T01:24:52.512Z,14.60
2023-01-21T01:25:52.482Z,17.60
2023-01-21T01:26:52.531Z,16.40
2023-01-21T01:27:52.460Z,18.10
2023-01-21T01:28:52.466Z,16.10
2023-01-21T01:29:52.436Z,18.60
2023-01-21T01:30:52.676Z,16.90
2023-01-21T01:31:52.480Z,16.90
2023-01-21T01:32:52.432Z,16.00
2023-01-21T01:33:52.404Z,16.90
2023-01-21T01:34:52.399Z,14.50
2023-01-21T01:35:52.383Z,16.20
2023-01-21T01:36:52.399Z,15.50
2023-01-21T01:37:52.368Z,17.90
2023-01-21T01:38:52.367Z,15.90
2023-01-21T01:39:52.349Z,19.00
2023-01-21T01:40:52.348Z,16.60
2023-01-21T01:41:52.357Z,16.50
2023-01-21T01:42:52.333Z,13.80
2023-01-21T01:43:52.308Z,15.40
2023-01-21T01:44:52.303Z,15.10
2023-01-21T01:45:52.346Z,15.80
2023-01-21T01:46:52.328Z,17.20
2023-01-21T01:49:03.505Z,16.10
2023-01-21T01:50:04.504Z,15.90
2023-01-21T01:51:04.556Z,15.60
2023-01-21T01:52:04.518Z,16.70
2023-01-21T01:53:04.474Z,15.40
2023-01-21T01:54:04.468Z,16.10
2023-01-21T01:55:04.454Z,16.70
2023-01-21T01:56:04.454Z,15.60
2023-01-21T01:57:04.452Z,16.40
2023-01-21T01:58:04.443Z,17.00
2023-01-21T01:59:04.421Z,15.60
2023-01-21T02:00:04.406Z,16.30
2023-01-21T02:01:04.395Z,17.00
2023-01-21T02:02:04.430Z,15.10
2023-01-21T02:03:04.466Z,15.10
2023-01-21T02:04:04.385Z,16.80
2023-01-21T02:05:04.371Z,14.60
2023-01-21T02:06:04.361Z,13.10
2023-01-21T02:07:04.354Z,12.50
2023-01-21T02:08:04.360Z,13.50
2023-01-21T02:09:04.319Z,13.60
2023-01-21T02:10:04.318Z,14.90
2023-01-21T02:11:04.294Z,14.00
2023-01-21T02:12:04.313Z,15.20
2023-01-21T02:13:04.281Z,13.30
2023-01-21T02:14:04.293Z,12.80
2023-01-21T02:15:04.261Z,14.50
2023-01-21T02:16:04.280Z,14.60
2023-01-21T02:17:04.256Z,13.30
2023-01-21T02:18:04.232Z,14.90
2023-01-21T02:19:04.215Z,13.70
2023-01-21T02:20:04.221Z,14.60
2023-01-21T02:21:04.211Z,13.30
2023-01-21T02:22:04.221Z,13.30
2023-01-21T02:23:04.180Z,13.80
2023-01-21T02:24:04.180Z,14.50
2023-01-21T02:25:04.162Z,13.90
2023-01-21T02:26:04.154Z,12.50
2023-01-21T02:27:04.156Z,13.70
2023-01-21T02:28:04.138Z,14.00
2023-01-21T02:29:04.123Z,14.70
2023-01-21T02:30:04.115Z,14.90
2023-01-21T02:31:04.229Z,14.00
2023-01-21T02:32:04.120Z,13.20
2023-01-21T02:33:04.082Z,17.00
2023-01-21T02:34:04.089Z,14.60
2023-01-21T02:35:04.062Z,13.90
2023-01-21T02:36:04.054Z,15.70
2023-01-21T02:37:04.065Z,12.70
2023-01-21T02:38:04.039Z,16.30
2023-01-21T02:39:04.033Z,13.00
2023-01-21T02:40:04.020Z,12.40
2023-01-21T02:41:04.007Z,12.50
2023-01-21T02:42:04.024Z,13.20
2023-01-21T02:43:03.981Z,16.50
2023-01-21T02:44:03.975Z,14.60
2023-01-21T02:45:03.965Z,10.90
2023-01-21T02:46:03.956Z,17.00
2023-01-21T02:47:03.975Z,17.70
2023-01-21T02:48:03.942Z,18.10
2023-01-21T02:49:03.930Z,14.10
2023-01-21T02:50:03.934Z,14.30
2023-01-21T02:51:03.930Z,18.00
2023-01-21T02:52:03.901Z,13.10
2023-01-21T02:53:03.891Z,12.90
2023-01-21T02:54:03.876Z,15.20
2023-01-21T02:55:03.878Z,13.90
2023-01-21T02:56:03.860Z,12.90
2023-01-21T02:57:03.845Z,17.40
2023-01-21T02:58:03.861Z,14.10
2023-01-21T02:59:03.832Z,12.20
2023-01-21T03:00:03.828Z,13.90
2023-01-21T03:01:03.933Z,14.20
2023-01-21T03:02:03.849Z,14.30
2023-01-21T03:03:03.790Z,13.10
2023-01-21T03:04:03.780Z,16.30
2023-01-21T03:05:03.770Z,15.10
2023-01-21T03:06:03.767Z,15.10
2023-01-21T03:07:03.761Z,14.20
2023-01-21T03:08:03.744Z,16.80
2023-01-21T03:09:03.735Z,12.40
2023-01-21T03:10:03.721Z,12.50
2023-01-21T03:11:03.717Z,16.70
2023-01-21T03:12:03.710Z,16.20
2023-01-21T03:13:03.702Z,16.30
2023-01-21T03:14:03.692Z,14.60
2023-01-21T03:15:03.673Z,14.90
2023-01-21T03:16:03.753Z,13.60
2023-01-21T03:17:03.658Z,14.30
2023-01-21T03:18:03.662Z,16.50
2023-01-21T03:19:03.629Z,15.50
2023-01-21T03:20:03.634Z,15.40
2023-01-21T03:21:03.610Z,12.10
2023-01-21T03:22:03.604Z,14.60
2023-01-21T03:23:03.607Z,13.00
2023-01-21T03:24:03.581Z,18.30
2023-01-21T03:25:03.572Z,13.20
2023-01-21T03:26:03.565Z,16.10
2023-01-21T03:27:03.563Z,15.90
2023-01-21T03:28:03.566Z,13.30
2023-01-21T03:29:03.533Z,15.40
2023-01-21T03:30:03.527Z,13.80
2023-01-21T03:31:03.538Z,15.00
2023-01-21T03:32:03.505Z,11.70
2023-01-21T03:33:03.502Z,13.30
2023-01-21T03:34:03.491Z,16.30
2023-01-21T03:35:03.474Z,14.30
2023-01-21T03:36:03.469Z,12.80
2023-01-21T03:37:03.470Z,12.70
2023-01-21T03:38:03.464Z,16.00
2023-01-21T03:39:03.457Z,15.80
2023-01-21T03:40:03.457Z,14.10
2023-01-21T03:41:03.437Z,14.00
2023-01-21T03:42:03.424Z,13.80
2023-01-21T03:43:03.422Z,16.30
2023-01-21T03:44:03.401Z,16.10
2023-01-21T03:45:03.375Z,16.70
2023-01-21T03:46:03.414Z,13.80
2023-01-21T03:47:03.353Z,15.20
2023-01-21T03:48:03.372Z,13.30
2023-01-21T03:49:03.339Z,14.60
2023-01-21T03:50:03.330Z,14.10
2023-01-21T03:51:03.318Z,14.00
2023-01-21T03:52:03.308Z,14.30
2023-01-21T03:53:03.309Z,13.00
2023-01-21T03:54:03.291Z,13.70
2023-01-21T03:55:03.281Z,15.30
2023-01-21T03:56:03.280Z,14.20
2023-01-21T03:57:03.262Z,11.00
2023-01-21T03:58:03.254Z,14.90
2023-01-21T03:59:03.233Z,13.80
2023-01-21T04:00:03.235Z,14.30
2023-01-21T04:01:03.323Z,14.90
2023-01-21T04:02:03.293Z,16.60
2023-01-21T04:03:03.213Z,16.60
2023-01-21T04:04:03.186Z,15.00
2023-01-21T04:05:03.182Z,14.40
2023-01-21T04:06:03.173Z,15.50
2023-01-21T04:07:03.160Z,15.40
2023-01-21T04:08:03.155Z,16.80
2023-01-21T04:09:03.148Z,17.10
2023-01-21T04:10:03.138Z,15.80
2023-01-21T04:11:03.122Z,16.00
2023-01-21T04:12:03.121Z,15.70
2023-01-21T04:13:03.112Z,15.60
2023-01-21T04:14:03.098Z,15.10
2023-01-21T04:15:05.377Z,17.50
2023-01-21T04:16:03.095Z,15.40
2023-01-21T04:17:03.059Z,16.90
2023-01-21T04:18:03.080Z,17.30
2023-01-21T04:19:03.037Z,16.60
2023-01-21T04:20:03.051Z,17.10
2023-01-21T04:21:03.027Z,18.50
2023-01-21T04:22:03.013Z,15.30
2023-01-21T04:23:03.016Z,16.60
2023-01-21T04:24:03.003Z,15.00
2023-01-21T04:25:02.981Z,18.60
2023-01-21T04:26:02.975Z,14.30
2023-01-21T04:27:02.971Z,14.90
2023-01-21T04:28:02.970Z,16.70
2023-01-21T04:29:02.945Z,16.60
2023-01-21T04:30:02.935Z,17.00
2023-01-21T04:31:02.950Z,15.20
2023-01-21T04:32:03.021Z,16.80
2023-01-21T04:33:02.940Z,15.30
2023-01-21T04:34:02.904Z,17.40
2023-01-21T04:35:02.884Z,17.50
2023-01-21T04:36:02.872Z,14.70
2023-01-21T04:37:02.871Z,16.80
2023-01-21T04:38:02.873Z,16.40
2023-01-21T04:39:02.868Z,15.60
2023-01-21T04:40:02.838Z,16.60
2023-01-21T04:41:02.825Z,18.00
2023-01-21T04:42:02.812Z,15.80
2023-01-21T04:43:02.830Z,19.80
2023-01-21T04:44:02.795Z,16.00
2023-01-21T04:45:02.798Z,16.30
2023-01-21T04:46:02.872Z,17.20
2023-01-21T04:47:02.767Z,16.60
2023-01-21T04:48:02.771Z,15.60
2023-01-21T04:49:02.786Z,15.60
2023-01-21T04:50:02.738Z,14.60
2023-01-21T04:51:02.777Z,16.80
2023-01-21T04:52:02.719Z,15.40
2023-01-21T04:53:02.760Z,17.00
2023-01-21T04:54:02.701Z,15.30
2023-01-21T04:55:02.690Z,18.20
2023-01-21T04:56:02.685Z,20.30
2023-01-21T04:57:02.681Z,16.30
2023-01-21T04:58:02.682Z,18.70
2023-01-21T04:59:02.655Z,14.90
2023-01-21T05:00:02.637Z,15.60
2023-01-21T05:01:02.670Z,19.80
2023-01-21T05:02:02.670Z,21.10
2023-01-21T05:03:02.641Z,19.80
2023-01-21T05:04:02.613Z,17.60
2023-01-21T05:05:02.599Z,20.80
2023-01-21T05:06:02.584Z,16.50
2023-01-21T05:07:02.580Z,18.70
2023-01-21T05:08:02.613Z,16.90
2023-01-21T05:09:02.564Z,17.10
2023-01-21T05:10:02.544Z,17.90
2023-01-21T05:11:02.541Z,16.30
2023-01-21T05:12:02.530Z,19.70
2023-01-21T05:13:02.562Z,17.80
2023-01-21T05:14:02.512Z,15.60
2023-01-21T05:15:02.519Z,20.30
2023-01-21T05:16:02.535Z,17.10
2023-01-21T05:17:02.583Z,15.70
2023-01-21T05:18:02.492Z,19.30
2023-01-21T05:19:02.467Z,20.30
2023-01-21T05:20:02.456Z,19.00
2023-01-21T05:21:02.458Z,16.50
2023-01-21T05:22:02.433Z,19.40
2023-01-21T05:23:02.526Z,18.50
2023-01-21T05:24:02.410Z,18.00
2023-01-21T05:25:02.411Z,17.80
2023-01-21T05:26:02.393Z,20.80
2023-01-21T05:27:02.389Z,18.70
2023-01-21T05:28:02.381Z,17.50
2023-01-21T05:29:02.373Z,20.80
2023-01-21T05:30:02.348Z,17.50
2023-01-21T05:31:02.449Z,21.10
2023-01-21T05:32:02.390Z,20.10
2023-01-21T05:33:02.340Z,18.60
2023-01-21T05:34:02.319Z,17.60
2023-01-21T05:35:02.307Z,15.20
2023-01-21T05:36:02.303Z,21.10
2023-01-21T05:37:02.292Z,18.20
2023-01-21T05:38:02.294Z,19.00
2023-01-21T05:39:02.269Z,18.10
2023-01-21T05:40:02.259Z,20.50
2023-01-21T05:41:02.255Z,19.70
2023-01-21T05:42:02.241Z,14.90
2023-01-21T05:43:02.254Z,18.20
2023-01-21T05:44:02.221Z,17.10
2023-01-21T05:45:02.215Z,15.90
2023-01-21T05:46:02.269Z,21.30
2023-01-21T05:47:02.196Z,21.00
2023-01-21T05:48:02.190Z,15.90
2023-01-21T05:49:02.177Z,18.50
2023-01-21T05:50:02.166Z,18.80
2023-01-21T05:51:02.203Z,19.90
2023-01-21T05:52:02.146Z,18.90
2023-01-21T05:53:02.157Z,17.10
2023-01-21T05:54:02.120Z,16.00
2023-01-21T05:55:02.936Z,17.20
2023-01-21T05:56:02.111Z,17.30
2023-01-21T05:57:02.096Z,20.00
2023-01-21T05:58:02.087Z,17.90
2023-01-21T05:59:02.109Z,17.40
2023-01-21T06:00:02.061Z,16.00
2023-01-21T06:01:02.058Z,21.50
2023-01-21T06:02:02.094Z,19.00
2023-01-21T06:03:02.064Z,18.20
2023-01-21T06:04:02.035Z,19.60
2023-01-21T06:05:02.030Z,20.10
2023-01-21T06:06:02.005Z,17.90
2023-01-21T06:07:02.015Z,19.10
2023-01-21T06:08:01.995Z,21.30
2023-01-21T06:09:01.988Z,18.40
2023-01-21T06:10:01.976Z,18.40
2023-01-21T06:11:01.987Z,19.20
2023-01-21T06:12:01.952Z,19.60
2023-01-21T06:13:01.945Z,19.10
2023-01-21T06:14:01.935Z,22.30
2023-01-21T06:15:01.946Z,20.80
2023-01-21T06:16:01.965Z,20.00
2023-01-21T06:17:01.914Z,19.10
2023-01-21T06:18:01.891Z,18.70
2023-01-21T06:19:01.882Z,20.60
2023-01-21T06:20:02.013Z,16.80
2023-01-21T06:21:01.870Z,20.00
2023-01-21T06:22:01.860Z,18.60
2023-01-21T06:23:01.851Z,18.90
2023-01-21T06:24:01.928Z,19.60
2023-01-21T06:25:01.833Z,17.30
2023-01-21T06:26:01.819Z,21.90
2023-01-21T06:27:01.820Z,19.00
2023-01-21T06:28:01.798Z,19.40
2023-01-21T06:29:01.844Z,17.30
2023-01-21T06:30:01.781Z,19.30
2023-01-21T06:31:01.890Z,19.80
2023-01-21T06:32:01.887Z,18.40
2023-01-21T06:33:01.749Z,18.30
2023-01-21T06:34:01.749Z,16.00
2023-01-21T06:35:01.731Z,19.30
2023-01-21T06:36:01.722Z,20.30
2023-01-21T06:37:01.714Z,21.70
2023-01-21T06:38:01.707Z,20.00
2023-01-21T06:39:01.701Z,20.20
2023-01-21T06:40:01.697Z,22.10
2023-01-21T06:41:01.672Z,20.40
2023-01-21T06:42:01.666Z,19.00
2023-01-21T06:43:01.661Z,18.00
2023-01-21T06:44:01.644Z,17.20
2023-01-21T06:45:01.635Z,20.40
2023-01-21T06:46:01.708Z,19.10
2023-01-21T06:47:02.152Z,17.20
2023-01-21T06:48:01.576Z,21.80
2023-01-21T06:49:01.612Z,20.90
2023-01-21T06:50:01.582Z,18.70
2023-01-21T06:51:01.698Z,17.00
2023-01-21T06:52:01.538Z,18.60
2023-01-21T06:53:01.511Z,20.30
2023-01-21T06:54:01.498Z,17.10
2023-01-21T06:55:01.542Z,21.50
2023-01-21T06:56:01.566Z,20.10
2023-01-21T06:57:01.559Z,22.50
2023-01-21T06:58:01.471Z,19.60
2023-01-21T06:59:01.471Z,21.20
2023-01-21T07:00:01.447Z,16.90
2023-01-21T07:01:01.427Z,20.40
2023-01-21T07:02:01.415Z,20.40
2023-01-21T07:03:01.468Z,20.10
2023-01-21T07:04:01.563Z,19.70
2023-01-21T07:05:01.418Z,19.50
2023-01-21T07:06:01.380Z,19.50
2023-01-21T07:07:01.371Z,22.10
2023-01-21T07:08:01.356Z,20.50
2023-01-21T07:09:01.360Z,20.60
2023-01-21T07:10:01.339Z,21.10
2023-01-21T07:11:01.359Z,19.00
2023-01-21T07:12:01.320Z,21.80
2023-01-21T07:13:01.313Z,20.80
2023-01-21T07:14:01.311Z,21.50
2023-01-21T07:15:01.298Z,19.50
2023-01-21T07:16:01.336Z,23.60
2023-01-21T07:17:01.277Z,20.00
2023-01-21T07:18:01.273Z,22.20
2023-01-21T07:19:01.255Z,23.90
2023-01-21T07:20:01.241Z,22.30
2023-01-21T07:21:01.255Z,24.20
2023-01-21T07:22:01.227Z,21.40
2023-01-21T07:23:01.223Z,19.80
2023-01-21T07:24:01.238Z,21.80
2023-01-21T07:25:01.196Z,19.50
2023-01-21T07:26:01.182Z,21.40
2023-01-21T07:27:01.179Z,22.40
2023-01-21T07:28:01.165Z,19.60
2023-01-21T07:29:02.011Z,20.70
2023-01-21T07:30:01.151Z,22.00
2023-01-21T07:31:01.331Z,22.50
2023-01-21T07:32:01.195Z,20.20
2023-01-21T07:33:01.121Z,21.40
2023-01-21T07:34:01.127Z,23.00
2023-01-21T07:35:01.105Z,20.20
2023-01-21T07:36:01.088Z,22.70
2023-01-21T07:37:01.112Z,22.80
2023-01-21T07:38:01.255Z,25.20
2023-01-21T07:39:01.083Z,20.90
2023-01-21T07:40:01.055Z,22.70
2023-01-21T07:41:01.055Z,22.70
2023-01-21T07:42:01.032Z,20.00
2023-01-21T07:43:01.027Z,21.20
2023-01-21T07:44:01.018Z,20.40
2023-01-21T07:45:01.023Z,24.10
2023-01-21T07:46:00.999Z,20.20
2023-01-21T07:47:00.986Z,17.80
2023-01-21T07:48:00.975Z,18.60
2023-01-21T07:49:00.977Z,20.50
2023-01-21T07:50:00.954Z,17.80
2023-01-21T07:51:00.988Z,18.90
2023-01-21T07:52:00.934Z,19.00
2023-01-21T07:53:00.932Z,20.70
2023-01-21T07:54:01.052Z,17.70
2023-01-21T07:55:00.910Z,24.50
2023-01-21T07:56:01.020Z,19.80
2023-01-21T07:57:00.886Z,19.80
2023-01-21T07:58:00.891Z,18.40
2023-01-21T07:59:00.869Z,19.60
2023-01-21T08:00:00.876Z,17.90
2023-01-21T08:01:01.087Z,17.70
2023-01-21T08:02:03.591Z,18.80
2023-01-21T08:03:00.836Z,20.60
2023-01-21T08:04:00.828Z,18.80
2023-01-21T08:05:00.816Z,17.70
2023-01-21T08:06:01.057Z,18.20
2023-01-21T08:07:00.797Z,18.80
2023-01-21T08:08:00.789Z,19.90
2023-01-21T08:09:00.796Z,18.80
2023-01-21T08:10:00.761Z,20.60
2023-01-21T08:11:00.774Z,18.20
2023-01-21T08:12:00.753Z,20.10
2023-01-21T08:13:00.740Z,18.40
2023-01-21T08:14:00.752Z,14.70
2023-01-21T08:15:00.726Z,17.00
2023-01-21T08:16:00.733Z,20.00
2023-01-21T08:17:00.710Z,17.80
2023-01-21T08:18:00.681Z,18.20
2023-01-21T08:19:00.731Z,17.50
2023-01-21T08:20:00.668Z,18.70
2023-01-21T08:21:00.664Z,19.10
2023-01-21T08:22:00.647Z,16.00
2023-01-21T08:23:00.639Z,20.70
2023-01-21T08:24:00.639Z,17.90
2023-01-21T08:25:00.623Z,18.40
2023-01-21T08:26:00.605Z,18.80
2023-01-21T08:27:00.620Z,18.80
2023-01-21T08:28:00.588Z,20.40
2023-01-21T08:29:00.604Z,20.40
2023-01-21T08:30:00.568Z,17.00
2023-01-21T08:31:00.578Z,18.40
2023-01-21T08:32:00.562Z,17.40
2023-01-21T08:33:00.544Z,16.10
2023-01-21T08:34:00.566Z,17.90
2023-01-21T08:35:00.533Z,15.90
2023-01-21T08:36:00.513Z,19.70
2023-01-21T08:37:00.513Z,17.90
2023-01-21T08:38:00.494Z,13.30
2023-01-21T08:39:00.500Z,18.90
2023-01-21T08:40:00.492Z,15.40
2023-01-21T08:41:00.472Z,18.60
2023-01-21T08:42:00.457Z,16.10
2023-01-21T08:43:00.447Z,17.20
2023-01-21T08:44:00.465Z,16.90
2023-01-21T08:45:00.439Z,16.70
2023-01-21T08:46:00.428Z,16.10
2023-01-21T08:47:00.425Z,15.10
2023-01-21T08:48:00.395Z,14.00
2023-01-21T08:49:00.388Z,14.40
2023-01-21T08:50:00.384Z,15.20
2023-01-21T08:51:00.428Z,14.60
2023-01-21T08:52:00.421Z,16.40
2023-01-21T08:53:00.340Z,15.90
2023-01-21T08:54:00.352Z,19.40
2023-01-21T08:55:00.326Z,14.50
2023-01-21T08:56:00.316Z,14.60
2023-01-21T08:57:00.315Z,16.00
2023-01-21T08:58:00.293Z,17.70
2023-01-21T08:59:00.304Z,17.90
2023-01-21T09:00:00.295Z,19.50
2023-01-21T09:01:00.285Z,16.30
2023-01-21T09:02:00.302Z,13.60
2023-01-21T09:03:00.258Z,16.50
2023-01-21T09:04:00.237Z,17.30
2023-01-21T09:05:00.226Z,15.10
2023-01-21T09:06:00.218Z,15.00
2023-01-21T09:07:00.214Z,15.10
2023-01-21T09:08:00.203Z,17.90
2023-01-21T09:09:00.188Z,15.40
2023-01-21T09:10:00.187Z,15.20
2023-01-21T09:11:00.154Z,17.00
2023-01-21T09:12:00.201Z,15.20
2023-01-21T09:13:00.140Z,17.20
2023-01-21T09:14:00.135Z,14.60
2023-01-21T09:15:00.168Z,17.60
2023-01-21T09:16:00.119Z,16.10
2023-01-21T09:17:00.119Z,18.60
2023-01-21T09:18:00.123Z,15.90
2023-01-21T09:19:00.118Z,15.80
2023-01-21T09:20:00.109Z,16.80
2023-01-21T09:21:00.085Z,16.60
2023-01-21T09:22:00.121Z,16.00
2023-01-21T09:23:00.057Z,16.50
2023-01-21T09:24:00.043Z,16.70
2023-01-21T09:25:00.030Z,17.70
2023-01-21T09:26:00.023Z,17.10
2023-01-21T09:27:00.000Z,18.20
2023-01-21T09:28:00.001Z,19.50
2023-01-21T09:28:59.992Z,20.40
2023-01-21T09:29:59.991Z,15.20
2023-01-21T09:31:00.032Z,19.50
2023-01-21T09:31:59.993Z,16.90
2023-01-21T09:32:59.947Z,18.30
2023-01-21T09:33:59.954Z,12.90
2023-01-21T09:34:59.946Z,13.70
2023-01-21T09:35:59.921Z,15.70
2023-01-21T09:36:59.922Z,12.00
2023-01-21T09:37:59.913Z,13.50
2023-01-21T09:38:59.885Z,7.80
2023-01-21T09:39:59.875Z,10.60
2023-01-21T09:40:59.868Z,13.30
2023-01-21T09:41:59.873Z,10.30
2023-01-21T09:42:59.841Z,12.70
2023-01-21T09:43:59.845Z,9.60
2023-01-21T09:44:59.822Z,10.10
2023-01-21T09:46:01.662Z,8.70
2023-01-21T09:46:59.816Z,9.70
2023-01-21T09:47:59.795Z,10.80
2023-01-21T09:48:59.782Z,12.30
2023-01-21T09:49:59.812Z,9.80
2023-01-21T09:50:59.814Z,10.50
2023-01-21T09:51:59.756Z,10.60
2023-01-21T09:52:59.747Z,9.90
2023-01-21T09:53:59.742Z,11.70
2023-01-21T09:54:59.730Z,10.80
2023-01-21T09:55:59.719Z,11.80
2023-01-21T09:56:59.699Z,10.70
2023-01-21T09:57:59.693Z,9.20
2023-01-21T09:58:59.677Z,10.80
2023-01-21T09:59:59.686Z,10.70
2023-01-21T10:00:59.702Z,10.30
2023-01-21T10:01:59.652Z,9.70
2023-01-21T10:02:59.645Z,11.60
2023-01-21T10:03:59.634Z,10.40
2023-01-21T10:04:59.646Z,9.90
2023-01-21T10:05:59.609Z,11.20
2023-01-21T10:06:59.636Z,10.10
2023-01-21T10:07:59.621Z,9.90
2023-01-21T10:08:59.584Z,10.10
2023-01-21T10:09:59.607Z,11.80
2023-01-21T10:10:59.562Z,12.70
2023-01-21T10:11:59.581Z,9.00
2023-01-21T10:12:59.543Z,10.90
2023-01-21T10:13:59.545Z,9.10
2023-01-21T10:14:59.567Z,12.50
2023-01-21T10:15:59.525Z,12.30
2023-01-21T10:16:59.545Z,9.30
2023-01-21T10:17:59.503Z,10.70
2023-01-21T10:18:59.483Z,9.80
2023-01-21T10:19:59.502Z,9.20
2023-01-21T10:20:59.489Z,12.30
2023-01-21T10:21:59.453Z,9.90
2023-01-21T10:22:59.448Z,10.70
2023-01-21T10:23:59.453Z,8.90
2023-01-21T10:24:59.431Z,8.70
2023-01-21T10:25:59.416Z,10.30
2023-01-21T10:26:59.407Z,8.40
2023-01-21T10:27:59.403Z,7.80
2023-01-21T10:28:59.386Z,7.50
2023-01-21T10:29:59.428Z,9.80
2023-01-21T10:30:59.413Z,10.50
2023-01-21T10:31:59.447Z,8.00
2023-01-21T10:32:59.340Z,9.00
2023-01-21T10:33:59.341Z,7.80
2023-01-21T10:34:59.336Z,8.90
2023-01-21T10:35:59.326Z,7.40
2023-01-21T10:36:59.303Z,8.80
2023-01-21T10:37:59.344Z,9.70
2023-01-21T10:38:59.286Z,9.10
2023-01-21T10:39:59.309Z,9.60
2023-01-21T10:40:59.267Z,7.80
2023-01-21T10:41:59.259Z,8.00
2023-01-21T10:42:59.269Z,9.00
2023-01-21T10:43:59.242Z,9.10
2023-01-21T10:44:59.258Z,8.30
2023-01-21T10:45:59.273Z,8.50
2023-01-21T10:46:59.202Z,6.70
2023-01-21T10:47:59.213Z,6.20
2023-01-21T10:48:59.191Z,9.00
2023-01-21T10:49:59.185Z,8.60
2023-01-21T10:50:59.230Z,8.20
2023-01-21T10:51:59.162Z,9.20
2023-01-21T10:52:59.188Z,8.30
2023-01-21T10:53:59.144Z,8.30
2023-01-21T10:54:59.140Z,7.80
2023-01-21T10:55:59.138Z,9.20
2023-01-21T10:56:59.107Z,9.80
2023-01-21T10:57:59.117Z,9.40
2023-01-21T10:58:59.096Z,9.60
2023-01-21T10:59:59.127Z,8.10
2023-01-21T11:00:59.102Z,8.60
2023-01-21T11:01:59.066Z,8.70
2023-01-21T11:02:59.067Z,9.20
2023-01-21T11:03:59.050Z,10.90
2023-01-21T11:04:59.045Z,7.80
2023-01-21T11:05:59.025Z,9.70
2023-01-21T11:06:59.032Z,8.50
2023-01-21T11:07:58.999Z,12.10
2023-01-21T11:08:59.042Z,7.40
2023-01-21T11:09:59.026Z,8.20
2023-01-21T11:10:58.972Z,8.50
2023-01-21T11:11:58.964Z,9.20
2023-01-21T11:12:58.947Z,10.00
2023-01-21T11:13:58.953Z,9.60
2023-01-21T11:14:58.957Z,9.80
2023-01-21T11:15:58.947Z,8.10
2023-01-21T11:16:58.934Z,8.60
2023-01-21T11:17:58.909Z,8.70
2023-01-21T11:18:58.890Z,7.60
2023-01-21T11:19:58.908Z,9.80
2023-01-21T11:20:58.872Z,8.40
2023-01-21T11:21:58.866Z,7.60
2023-01-21T11:22:58.848Z,7.20
2023-01-21T11:23:58.847Z,8.10
2023-01-21T11:24:58.835Z,8.00
2023-01-21T11:25:58.828Z,7.30
2023-01-21T11:26:58.809Z,8.50
2023-01-21T11:27:58.802Z,7.50
2023-01-21T11:28:58.795Z,10.30
2023-01-21T11:29:58.790Z,10.10
2023-01-21T11:30:58.944Z,7.00
2023-01-21T11:31:58.834Z,8.20
2023-01-21T11:32:58.745Z,7.80
2023-01-21T11:33:58.744Z,9.20
2023-01-21T11:34:58.733Z,8.10
2023-01-21T11:35:58.736Z,8.10
2023-01-21T11:36:58.723Z,9.50
2023-01-21T11:37:58.704Z,7.80
2023-01-21T11:38:58.717Z,8.10
2023-01-21T11:39:58.681Z,9.50
2023-01-21T11:40:58.677Z,9.00
2023-01-21T11:41:58.663Z,9.20
2023-01-21T11:42:58.660Z,10.00
2023-01-21T11:43:58.650Z,8.30
2023-01-21T11:44:58.638Z,9.30
2023-01-21T11:45:58.658Z,8.70
2023-01-21T11:46:58.615Z,8.70
2023-01-21T11:47:58.617Z,9.20
2023-01-21T11:48:58.595Z,9.70
2023-01-21T11:49:58.636Z,7.30
2023-01-21T11:50:58.597Z,8.70
2023-01-21T11:51:58.581Z,9.10
2023-01-21T11:53:01.116Z,8.10
2023-01-21T11:53:58.539Z,9.80
2023-01-21T11:54:58.531Z,8.70
2023-01-21T11:55:58.538Z,11.20
2023-01-21T11:56:58.514Z,10.60
2023-01-21T11:57:58.501Z,7.90
2023-01-21T11:58:58.495Z,8.10
2023-01-21T11:59:58.596Z,8.60
2023-01-21T12:00:58.484Z,9.60
2023-01-21T12:01:58.470Z,6.70
2023-01-21T12:02:58.507Z,8.60
2023-01-21T12:03:58.491Z,8.90
2023-01-21T12:04:58.432Z,9.50
2023-01-21T12:05:58.435Z,7.70
2023-01-21T12:06:58.417Z,9.80
2023-01-21T12:07:58.403Z,10.10
2023-01-21T12:08:58.393Z,10.40
2023-01-21T12:09:58.383Z,10.60
2023-01-21T12:10:58.453Z,9.00
2023-01-21T12:11:58.385Z,9.00
2023-01-21T12:12:58.363Z,8.40
2023-01-21T12:13:58.414Z,11.20
2023-01-21T12:14:58.336Z,11.70
2023-01-21T12:15:58.352Z,10.60
2023-01-21T12:16:58.340Z,12.20
2023-01-21T12:17:58.311Z,9.00
2023-01-21T12:18:58.289Z,10.90
2023-01-21T12:19:58.287Z,9.90
2023-01-21T12:20:58.297Z,11.20
2023-01-21T12:21:58.299Z,8.50
2023-01-21T12:22:58.259Z,9.50
2023-01-21T12:23:58.259Z,10.30
2023-01-21T12:24:58.237Z,11.30
2023-01-21T12:25:58.252Z,11.30
2023-01-21T12:26:58.206Z,11.80
2023-01-21T12:27:58.205Z,9.60
2023-01-21T12:28:58.201Z,12.00
2023-01-21T12:29:58.187Z,9.20
2023-01-21T12:30:58.262Z,11.00
2023-01-21T12:31:58.238Z,12.10
2023-01-21T12:32:58.158Z,10.50
2023-01-21T12:33:58.142Z,9.30
2023-01-21T12:34:58.136Z,9.80
2023-01-21T12:35:58.143Z,10.50
2023-01-21T12:36:58.110Z,12.50
2023-01-21T12:37:58.104Z,13.10
2023-01-21T12:38:58.086Z,9.10
2023-01-21T12:39:58.108Z,11.30
2023-01-21T12:40:58.094Z,9.20
2023-01-21T12:41:58.072Z,11.00
2023-01-21T12:42:58.053Z,8.50
2023-01-21T12:43:58.041Z,10.30
2023-01-21T12:44:58.034Z,9.20
2023-01-21T12:45:58.037Z,8.70
2023-01-21T12:46:58.056Z,9.20
2023-01-21T12:47:58.013Z,7.90
2023-01-21T12:48:57.997Z,8.30
2023-01-21T12:49:57.985Z,11.90
2023-01-21T12:50:58.052Z,9.00
2023-01-21T12:51:57.972Z,8.30
2023-01-21T12:52:57.953Z,8.50
2023-01-21T12:53:57.946Z,7.90
2023-01-21T12:54:57.934Z,10.70
2023-01-21T12:55:57.936Z,10.00
2023-01-21T12:56:57.910Z,12.60
2023-01-21T12:57:57.919Z,10.10